Time;durP1;ratioP1;P1;durP2;ratioP2;P2;SDS_P1;SDS_P2;PMS_P1;PMS_P2;Temp;Humidity;BMP_temperature;BMP_pressure;BME280_temperature;BME280_humidity;BME280_pressure;Samples;Min_cycle;Max_cycle;Signal;HPM_P1;HPM_P2
2024/04/25 00:00:10;;;;;;;1.90;1.40;;;;;;;1.48;56.22;100488.16;5321453;26;21166;-76
2024/04/25 00:02:35;;;;;;;2.97;1.40;;;;;;;1.56;56.12;100488.13;5293297;26;20002;-76
2024/04/25 00:05:01;;;;;;;2.80;1.27;;;;;;;1.57;56.38;100482.09;5301185;26;20020;-75
2024/04/25 00:07:26;;;;;;;2.15;1.05;;;;;;;1.55;56.48;100481.25;5316745;26;20017;-76
2024/04/25 00:09:52;;;;;;;3.17;1.42;;;;;;;1.66;56.18;100484.56;5319123;26;20047;-76
2024/04/25 00:12:17;;;;;;;5.97;2.20;;;;;;;1.62;56.63;100477.78;5285276;26;20345;-75
2024/04/25 00:14:42;;;;;;;3.50;1.50;;;;;;;1.65;56.12;100482.88;5348872;26;20001;-77
2024/04/25 00:17:08;;;;;;;4.53;1.63;;;;;;;1.66;56.44;100477.72;5292175;26;20028;-76
2024/04/25 00:19:33;;;;;;;7.40;2.22;;;;;;;1.67;56.81;100476.00;5297865;26;20020;-76
2024/04/25 00:21:59;;;;;;;4.20;1.88;;;;;;;1.66;57.07;100469.13;5289180;26;20025;-76
2024/04/25 00:24:24;;;;;;;6.28;1.55;;;;;;;1.67;57.04;100471.69;5287191;26;20031;-76
2024/04/25 00:26:50;;;;;;;2.92;1.58;;;;;;;1.81;57.02;100476.72;5320745;26;20023;-76
2024/04/25 00:29:15;;;;;;;6.13;1.45;;;;;;;1.94;56.87;100470.56;5341208;26;20021;-75
2024/04/25 00:31:41;;;;;;;2.97;1.10;;;;;;;2.05;56.76;100475.59;5289692;26;20033;-76
2024/04/25 00:34:06;;;;;;;4.18;1.10;;;;;;;2.02;56.23;100473.06;5283210;26;20020;-75
2024/04/25 00:36:32;;;;;;;6.28;1.65;;;;;;;1.70;56.73;100475.97;5290904;26;20005;-75
2024/04/25 00:38:58;;;;;;;3.47;1.52;;;;;;;1.75;56.28;100473.34;5295173;26;20008;-77
2024/04/25 00:41:23;;;;;;;4.05;1.77;;;;;;;1.77;56.31;100477.59;5290754;26;20562;-75
2024/04/25 00:43:51;;;;;;;2.47;1.35;;;;;;;1.91;56.60;100475.75;5297953;26;20082;-76
2024/04/25 00:46:20;;;;;;;2.22;1.38;;;;;;;1.92;56.53;100461.97;5294877;26;20499;-75
2024/04/25 00:48:46;;;;;;;4.32;1.50;;;;;;;1.97;56.53;100461.94;5293141;26;20017;-75
2024/04/25 00:51:13;;;;;;;2.92;0.57;;;;;;;2.08;56.41;100461.81;5288998;26;20032;-75
2024/04/25 00:53:39;;;;;;;3.30;1.10;;;;;;;2.19;56.77;100464.28;5295148;26;20020;-76
2024/04/25 00:56:06;;;;;;;2.55;1.17;;;;;;;2.25;56.71;100467.63;5294009;26;20095;-75
2024/04/25 00:58:34;;;;;;;2.65;1.08;;;;;;;2.30;56.47;100467.59;5301824;26;20020;-75
2024/04/25 01:01:02;;;;;;;2.67;1.00;;;;;;;2.33;56.24;100463.25;5266966;26;20028;-75
2024/04/25 01:03:31;;;;;;;4.03;2.33;;;;;;;2.30;56.48;100450.38;5302139;26;20020;-76
2024/04/25 01:05:58;;;;;;;2.83;1.20;;;;;;;2.31;56.45;100454.69;5328622;26;20017;-76
2024/04/25 01:08:24;;;;;;;2.80;1.60;;;;;;;2.07;57.24;100460.13;5293080;26;20028;-75
2024/04/25 01:10:51;;;;;;;3.35;2.13;;;;;;;2.04;56.80;100449.81;5290261;26;20422;-75
2024/04/25 01:13:17;;;;;;;7.68;1.77;;;;;;;2.12;56.77;100446.28;5282802;26;20008;-75
2024/04/25 01:15:43;;;;;;;3.55;1.55;;;;;;;2.07;57.18;100444.66;5287801;26;20683;-77
2024/04/25 01:18:08;;;;;;;3.53;1.20;;;;;;;1.97;56.96;100443.03;5292656;26;20416;-75
2024/04/25 01:20:34;;;;;;;2.25;1.27;;;;;;;2.07;57.14;100448.09;5279284;26;20072;-76
2024/04/25 01:23:08;;;;;;;2.72;1.58;;;;;;;2.11;57.16;100448.91;5301976;26;20017;-76
2024/04/25 01:25:35;;;;;;;4.65;2.42;;;;;;;1.74;58.03;100446.72;5293563;26;20002;-76
2024/04/25 01:28:03;;;;;;;3.05;1.95;;;;;;;1.86;57.98;100451.75;5298550;26;20094;-77
2024/04/25 01:30:30;;;;;;;2.60;1.73;;;;;;;1.76;58.05;100455.28;5300210;26;20021;-75
2024/04/25 01:32:55;;;;;;;6.07;1.58;;;;;;;1.69;57.93;100446.78;5285149;26;20551;-76
2024/04/25 01:35:21;;;;;;;4.75;1.52;;;;;;;1.76;58.04;100447.56;5253624;26;20016;-76
2024/04/25 01:37:48;;;;;;;3.08;2.00;;;;;;;1.30;59.13;100429.91;5287799;26;20009;-75
2024/04/25 01:40:14;;;;;;;3.67;1.52;;;;;;;1.43;59.15;100430.72;5290404;26;20021;-76
2024/04/25 01:42:40;;;;;;;4.72;1.73;;;;;;;1.66;58.50;100430.47;5286895;26;20077;-76
2024/04/25 01:45:06;;;;;;;4.32;1.40;;;;;;;1.52;58.52;100430.63;5324871;26;20079;-77
2024/04/25 01:47:31;;;;;;;2.67;1.73;;;;;;;1.18;59.59;100432.63;5299523;26;22207;-75
2024/04/25 01:49:57;;;;;;;2.97;1.33;;;;;;;1.50;59.64;100428.03;5272456;26;20065;-75
2024/04/25 01:52:22;;;;;;;3.75;0.93;;;;;;;1.57;59.65;100428.00;5314681;26;20027;-75
2024/04/25 01:54:48;;;;;;;6.43;1.02;;;;;;;1.90;59.17;100431.94;5293002;26;20021;-75
2024/04/25 01:57:14;;;;;;;2.47;1.27;;;;;;;2.10;58.63;100430.00;5295795;26;20016;-76
2024/04/25 01:59:39;;;;;;;2.72;0.85;;;;;;;1.92;58.93;100433.63;5287938;26;20020;-75
2024/04/25 02:02:04;;;;;;;1.23;0.82;;;;;;;1.83;59.07;100436.31;5297495;26;20016;-75
2024/04/25 02:04:30;;;;;;;4.00;0.90;;;;;;;2.09;58.22;100433.44;5295094;26;20009;-75
2024/04/25 02:06:55;;;;;;;4.18;0.73;;;;;;;2.32;58.14;100429.72;5326698;26;20087;-75
2024/04/25 02:09:21;;;;;;;1.92;1.00;;;;;;;2.30;57.41;100422.00;5292473;26;20020;-75
2024/04/25 02:11:46;;;;;;;2.13;0.80;;;;;;;2.21;57.74;100416.97;5301252;26;20041;-76
2024/04/25 02:14:12;;;;;;;2.33;0.70;;;;;;;2.34;57.55;100426.25;5293671;26;20558;-76
2024/04/25 02:16:37;;;;;;;2.55;0.80;;;;;;;2.43;57.41;100416.69;5285684;26;20401;-75
2024/04/25 02:19:03;;;;;;;3.17;0.80;;;;;;;2.38;57.44;100413.31;5303536;26;20012;-76
2024/04/25 02:26:57;;;;;;;1.95;0.90;;;;;;;2.26;58.48;100415.19;5287863;26;20651;-75
2024/04/25 02:29:22;;;;;;;2.53;1.20;;;;;;;2.06;59.17;100423.16;5289656;26;20481;-76
2024/04/25 02:31:47;;;;;;;3.47;1.40;;;;;;;1.71;59.33;100421.84;5266174;26;20009;-76
2024/04/25 02:34:13;;;;;;;3.33;0.82;;;;;;;2.01;58.72;100409.47;5297827;26;20008;-75
2024/04/25 02:36:38;;;;;;;1.85;0.90;;;;;;;2.14;57.98;100416.19;5288699;26;20016;-77
2024/04/25 02:39:06;;;;;;;1.88;0.80;;;;;;;1.96;58.06;100407.84;5296010;26;20008;-75
2024/04/25 02:41:32;;;;;;;2.67;1.20;;;;;;;2.05;58.28;100410.31;5302002;26;20630;-77
2024/04/25 02:43:57;;;;;;;2.08;1.30;;;;;;;2.01;58.41;100408.63;5297109;26;20036;-76
2024/04/25 02:46:23;;;;;;;4.78;1.33;;;;;;;2.10;58.32;100411.09;5291984;26;20037;-74
2024/04/25 02:48:49;;;;;;;2.60;1.73;;;;;;;2.17;58.21;100398.97;5338268;26;20015;-76
2024/04/25 02:51:14;;;;;;;3.65;1.38;;;;;;;1.59;58.54;100401.34;5294110;26;20019;-75
2024/04/25 02:53:40;;;;;;;3.25;1.73;;;;;;;2.11;58.50;100405.09;5295318;26;20096;-75
2024/04/25 02:56:05;;;;;;;2.88;1.63;;;;;;;2.26;57.88;100398.84;5297332;26;20240;-75
2024/04/25 02:58:32;;;;;;;1.52;0.98;;;;;;;2.46;57.77;100404.59;5289110;26;20294;-76
2024/04/25 03:01:02;;;;;;;4.47;1.70;;;;;;;2.50;57.41;100401.09;5300005;26;20113;-75
2024/04/25 03:03:28;;;;;;;2.60;2.05;;;;;;;2.56;57.52;100392.44;5342855;26;20500;-76
2024/04/25 03:05:55;;;;;;;4.40;2.08;;;;;;;2.55;57.20;100385.56;5273948;26;20009;-75
2024/04/25 03:08:20;;;;;;;5.85;1.92;;;;;;;2.35;57.65;100391.88;5286508;26;20238;-76
2024/04/25 03:10:46;;;;;;;7.50;2.10;;;;;;;2.34;57.74;100387.56;5290536;26;20763;-76
2024/04/25 03:13:11;;;;;;;3.58;1.73;;;;;;;2.45;57.43;100389.16;5291878;26;20028;-76
2024/04/25 03:15:37;;;;;;;3.17;1.77;;;;;;;2.41;57.40;100379.75;5291749;26;20116;-75
2024/04/25 03:18:02;;;;;;;2.33;1.42;;;;;;;2.46;57.13;100377.94;5291365;26;20013;-77
2024/04/25 03:20:28;;;;;;;4.43;1.23;;;;;;;2.48;57.45;100378.78;5298802;26;20704;-77
2024/04/25 03:22:53;;;;;;;3.28;2.00;;;;;;;2.57;57.56;100391.56;5298493;26;20013;-76
2024/04/25 03:25:19;;;;;;;2.30;1.67;;;;;;;2.53;57.10;100384.72;5297041;26;20663;-75
2024/04/25 03:27:45;;;;;;;2.97;1.15;;;;;;;2.52;57.30;100383.03;5291786;26;20016;-75
2024/04/25 03:30:10;;;;;;;3.80;1.45;;;;;;;2.58;57.46;100382.94;5294019;26;20075;-75
2024/04/25 03:32:36;;;;;;;3.63;1.30;;;;;;;2.61;57.39;100384.63;5273577;26;20005;-75
2024/04/25 03:35:02;;;;;;;1.67;1.08;;;;;;;2.58;57.74;100377.78;5291835;26;20005;-76
2024/04/25 03:37:28;;;;;;;2.20;1.15;;;;;;;2.44;57.87;100372.81;5320678;26;20012;-75
2024/04/25 03:39:53;;;;;;;3.67;2.25;;;;;;;2.30;58.53;100380.75;5268432;26;20703;-75
2024/04/25 03:42:21;;;;;;;2.53;1.30;;;;;;;2.40;58.24;100385.78;5295922;26;20544;-75
2024/04/25 03:44:47;;;;;;;3.17;1.58;;;;;;;2.49;58.46;100385.66;5266860;26;20087;-76
2024/04/25 03:47:12;;;;;;;4.03;1.45;;;;;;;2.57;57.98;100388.97;5302260;26;20024;-76
2024/04/25 03:49:38;;;;;;;2.85;1.52;;;;;;;2.65;57.78;100381.97;5289512;26;20032;-76
2024/04/25 03:52:03;;;;;;;2.58;1.73;;;;;;;2.35;57.24;100381.56;5293588;26;20116;-75
2024/04/25 03:54:29;;;;;;;5.18;1.90;;;;;;;2.43;57.58;100376.28;5294058;26;20402;-75
2024/04/25 03:56:54;;;;;;;3.10;1.73;;;;;;;2.24;57.71;100370.53;5285662;26;20005;-76
2024/04/25 03:59:20;;;;;;;6.72;2.03;;;;;;;2.26;57.95;100371.34;5292031;26;20009;-75
2024/04/25 04:01:45;;;;;;;4.55;2.08;;;;;;;2.34;57.95;100371.25;5293490;26;20013;-76
2024/04/25 04:04:11;;;;;;;4.13;2.22;;;;;;;2.39;58.01;100363.44;5273286;26;20020;-74
2024/04/25 04:06:36;;;;;;;4.10;1.48;;;;;;;2.39;57.91;100369.44;5298783;26;20005;-75
2024/04/25 04:09:02;;;;;;;3.05;1.65;;;;;;;2.34;58.03;100372.09;5288999;26;20052;-77
2024/04/25 04:11:28;;;;;;;2.88;1.80;;;;;;;2.43;57.67;100371.13;5286841;26;20459;-76
2024/04/25 04:13:53;;;;;;;2.05;0.93;;;;;;;2.47;57.71;100372.78;5283069;26;20009;-75
2024/04/25 04:16:19;;;;;;;3.78;1.45;;;;;;;2.46;57.91;100375.38;5289553;26;20005;-76
2024/04/25 04:18:44;;;;;;;2.65;1.60;;;;;;;2.48;57.59;100371.03;5320340;26;20009;-76
2024/04/25 04:21:09;;;;;;;3.33;1.65;;;;;;;2.37;57.86;100371.19;5299303;26;20001;-75
2024/04/25 04:23:35;;;;;;;2.35;1.30;;;;;;;2.23;58.13;100373.97;5314514;26;20367;-76
2024/04/25 04:26:00;;;;;;;3.33;1.95;;;;;;;2.26;57.77;100378.22;5295800;26;20103;-76
2024/04/25 04:28:26;;;;;;;7.55;2.10;;;;;;;2.20;58.04;100374.03;5292254;26;20009;-75
2024/04/25 04:30:51;;;;;;;3.78;2.10;;;;;;;1.99;58.79;100371.72;5288141;26;20024;-75
2024/04/25 04:33:17;;;;;;;3.13;1.70;;;;;;;2.15;58.94;100368.06;5284746;26;20019;-75
2024/04/25 04:35:43;;;;;;;3.63;2.00;;;;;;;2.28;58.18;100379.91;5297842;26;20012;-76
2024/04/25 04:38:08;;;;;;;2.88;2.00;;;;;;;2.29;58.45;100384.22;5292716;26;20047;-76
2024/04/25 04:40:34;;;;;;;2.63;1.88;;;;;;;2.28;58.20;100387.66;5299878;26;20075;-77
2024/04/25 04:42:59;;;;;;;3.08;1.73;;;;;;;2.28;58.25;100379.91;5298431;26;20013;-75
2024/04/25 04:45:25;;;;;;;3.90;1.90;;;;;;;2.29;58.21;100384.22;5315746;26;20016;-77
2024/04/25 04:47:50;;;;;;;7.43;2.60;;;;;;;2.11;59.05;100384.47;5293863;26;20017;-75
2024/04/25 04:50:19;;;;;;;4.28;2.65;;;;;;;1.90;59.00;100381.25;5291808;26;20086;-76
2024/04/25 04:52:45;;;;;;;4.03;2.17;;;;;;;1.47;60.82;100380.88;5291979;26;20087;-75
2024/04/25 04:55:11;;;;;;;4.32;1.85;;;;;;;1.70;60.38;100384.06;5290005;26;20677;-75
2024/04/25 04:57:36;;;;;;;6.47;2.10;;;;;;;1.81;60.26;100376.19;5297251;26;20009;-75
2024/04/25 05:00:02;;;;;;;5.95;2.38;;;;;;;1.70;60.15;100368.59;5285259;26;20013;-76
2024/04/25 05:02:28;;;;;;;4.65;2.50;;;;;;;1.87;59.72;100371.00;5343192;26;20009;-76
2024/04/25 05:04:53;;;;;;;3.95;2.25;;;;;;;2.04;59.38;100368.22;5282793;26;20086;-77
2024/04/25 05:07:19;;;;;;;3.08;1.80;;;;;;;1.92;59.55;100364.03;5337142;26;20010;-76
2024/04/25 05:09:44;;;;;;;5.82;2.00;;;;;;;2.10;59.21;100373.28;5290307;26;20468;-75
2024/04/25 05:12:09;;;;;;;6.30;2.17;;;;;;;2.11;59.21;100374.16;5289585;26;20041;-75
2024/04/25 05:14:35;;;;;;;4.13;2.25;;;;;;;2.02;59.01;100371.66;5289755;26;22141;-75
2024/04/25 05:17:00;;;;;;;4.05;2.25;;;;;;;2.03;59.40;100378.53;5293827;26;20080;-76
2024/04/25 05:19:26;;;;;;;6.50;1.98;;;;;;;2.07;59.85;100373.31;5290064;26;20016;-75
2024/04/25 05:21:54;;;;;;;5.25;2.08;;;;;;;2.21;59.07;100375.72;5282442;26;21994;-76
2024/04/25 05:24:20;;;;;;;3.53;2.10;;;;;;;1.98;60.07;100367.44;5259158;26;20398;-75
2024/04/25 05:26:46;;;;;;;5.65;2.60;;;;;;;2.19;59.64;100371.44;5342497;26;20025;-75
2024/04/25 05:29:12;;;;;;;2.97;2.00;;;;;;;2.50;59.46;100367.56;5322756;26;22316;-75
2024/04/25 05:31:38;;;;;;;4.28;2.50;;;;;;;2.43;59.41;100375.44;5302140;26;20027;-76
2024/04/25 05:34:04;;;;;;;4.43;2.38;;;;;;;2.79;59.27;100373.19;5262071;26;21329;-76
2024/04/25 05:36:30;;;;;;;4.05;2.83;;;;;;;2.51;58.94;100368.41;5272267;26;20009;-76
2024/04/25 05:38:56;;;;;;;3.83;2.95;;;;;;;2.37;59.39;100372.94;5288133;26;20044;-75
2024/04/25 05:41:22;;;;;;;6.00;2.70;;;;;;;2.60;59.06;100368.31;5299825;26;20854;-76
2024/04/25 05:43:48;;;;;;;7.00;2.63;;;;;;;2.82;58.81;100360.22;5294823;26;20008;-76
2024/04/25 05:46:15;;;;;;;3.33;2.33;;;;;;;3.24;58.74;100375.88;5300364;26;21910;-76
2024/04/25 05:48:40;;;;;;;4.88;2.58;;;;;;;3.81;56.89;100365.38;5290146;26;20021;-76
2024/04/25 05:51:06;;;;;;;4.15;2.10;;;;;;;4.22;55.94;100363.63;5285768;26;20021;-75
2024/04/25 05:53:31;;;;;;;3.67;1.83;;;;;;;3.83;55.45;100361.00;5265197;26;20028;-75
2024/04/25 05:55:57;;;;;;;5.50;1.80;;;;;;;3.82;55.92;100358.44;5284840;26;20004;-76
2024/04/25 05:58:22;;;;;;;4.30;1.60;;;;;;;3.69;55.90;100365.59;5283497;26;20028;-75
2024/04/25 06:00:48;;;;;;;3.88;1.48;;;;;;;3.35;56.78;100359.31;5283892;26;20009;-76
2024/04/25 06:03:13;;;;;;;2.65;1.50;;;;;;;3.46;56.37;100360.88;5288545;26;20013;-74
2024/04/25 06:05:39;;;;;;;3.45;1.73;;;;;;;3.20;56.73;100364.72;5286526;26;20944;-75
2024/04/25 06:08:06;;;;;;;5.28;2.17;;;;;;;3.39;57.18;100360.13;5281118;26;20117;-75
2024/04/25 06:10:32;;;;;;;2.78;1.92;;;;;;;3.49;57.22;100359.09;5290531;26;20457;-76
2024/04/25 06:12:57;;;;;;;5.75;2.00;;;;;;;3.72;57.50;100360.38;5284145;26;20012;-77
2024/04/25 06:15:23;;;;;;;3.42;1.42;;;;;;;3.80;57.48;100358.47;5300541;26;20013;-75
2024/04/25 06:17:48;;;;;;;3.25;1.83;;;;;;;4.02;56.80;100357.16;5303182;26;20041;-76
2024/04/25 06:20:16;;;;;;;4.80;1.45;;;;;;;3.95;57.68;100360.75;5331708;26;20016;-75
2024/04/25 06:22:42;;;;;;;2.13;1.20;;;;;;;4.25;57.35;100360.97;5296517;26;20013;-75
2024/04/25 06:25:08;;;;;;;5.10;2.15;;;;;;;4.27;56.69;100361.78;5283499;26;20588;-75
2024/04/25 06:27:35;;;;;;;3.28;1.63;;;;;;;4.53;56.28;100350.03;5283056;26;20475;-75
2024/04/25 06:30:00;;;;;;;4.28;1.23;;;;;;;4.59;56.38;100362.84;5293441;26;20008;-76
2024/04/25 06:32:26;;;;;;;2.83;1.02;;;;;;;4.84;55.07;100353.56;5281567;26;20019;-76
2024/04/25 06:34:52;;;;;;;3.40;1.42;;;;;;;5.20;55.69;100357.91;5343616;26;20952;-77
2024/04/25 06:37:19;;;;;;;2.78;0.77;;;;;;;5.45;55.39;100360.69;5343432;26;20005;-75
2024/04/25 06:39:49;;;;;;;3.33;0.90;;;;;;;5.51;54.85;100355.34;5287100;26;20005;-76
2024/04/25 06:42:15;;;;;;;2.15;0.60;;;;;;;5.66;53.69;100356.69;5308233;26;20028;-75
2024/04/25 06:44:41;;;;;;;3.33;0.93;;;;;;;5.73;53.74;100359.97;5292343;26;20013;-76
2024/04/25 06:47:08;;;;;;;0.80;0.30;;;;;;;5.55;54.69;100369.09;5310240;26;20160;-76
2024/04/25 06:49:34;;;;;;;6.78;0.80;;;;;;;5.25;54.18;100354.28;5285853;26;20465;-75
2024/04/25 06:52:01;;;;;;;1.63;0.80;;;;;;;5.24;53.37;100356.94;5340560;26;20009;-76
2024/04/25 06:54:27;;;;;;;2.45;0.28;;;;;;;5.41;53.54;100356.47;5286917;26;20025;-75
2024/04/25 06:56:53;;;;;;;7.13;0.80;;;;;;;5.76;53.93;100354.69;5298221;26;20013;-75
2024/04/25 06:59:19;;;;;;;1.52;0.45;;;;;;;6.07;53.51;100352.88;5267216;26;20478;-76
2024/04/25 07:01:51;;;;;;;2.90;0.45;;;;;;;6.38;53.14;100348.56;5299611;26;20020;-75
2024/04/25 07:04:17;;;;;;;4.05;0.50;;;;;;;6.49;52.07;100355.13;5339495;26;20016;-76
2024/04/25 07:06:43;;;;;;;2.58;0.55;;;;;;;6.38;51.56;100354.59;5286735;26;22099;-75
2024/04/25 07:09:08;;;;;;;2.90;0.30;;;;;;;5.58;52.20;100356.88;5331130;26;20056;-77
2024/04/25 07:11:35;;;;;;;2.47;0.40;;;;;;;5.23;53.07;100363.00;5287241;26;20020;-76
2024/04/25 07:14:01;;;;;;;4.80;0.30;;;;;;;4.36;53.87;100361.63;5287206;26;20090;-76
2024/04/25 07:16:27;;;;;;;6.47;0.38;;;;;;;4.56;53.73;100358.53;5269262;26;20012;-76
2024/04/25 07:18:53;;;;;;;1.00;0.15;;;;;;;4.79;53.93;100355.44;5255040;26;20040;-75
2024/04/25 07:21:20;;;;;;;4.57;0.50;;;;;;;5.00;54.55;100353.22;5281931;26;20757;-75
2024/04/25 07:23:45;;;;;;;6.60;0.55;;;;;;;5.20;54.74;100350.97;5285589;26;20013;-75
2024/04/25 07:26:11;;;;;;;5.57;0.30;;;;;;;5.30;54.61;100358.50;5284192;26;20006;-75
2024/04/25 07:28:36;;;;;;;3.95;0.50;;;;;;;5.26;54.44;100357.75;5295422;26;20021;-74
2024/04/25 07:31:02;;;;;;;7.50;0.70;;;;;;;5.30;54.95;100351.59;5283587;26;20008;-76
2024/04/25 07:33:28;;;;;;;6.32;0.40;;;;;;;5.33;53.87;100355.84;5292611;26;20040;-75
2024/04/25 07:35:53;;;;;;;5.90;0.95;;;;;;;4.79;53.64;100345.06;5296495;26;20049;-76
2024/04/25 07:38:19;;;;;;;7.70;0.50;;;;;;;5.03;53.83;100347.97;5293126;26;20024;-76
2024/04/25 07:40:44;;;;;;;3.55;0.30;;;;;;;5.65;53.79;100352.38;5286801;26;20027;-74
2024/04/25 07:43:10;;;;;;;5.47;0.52;;;;;;;5.72;52.30;100343.53;5279299;26;20009;-76
2024/04/25 07:45:35;;;;;;;2.30;0.30;;;;;;;5.65;50.53;100349.78;5283551;26;20024;-76
2024/04/25 07:48:01;;;;;;;4.80;0.20;;;;;;;6.05;51.30;100346.06;5293886;26;20001;-75
2024/04/25 07:50:26;;;;;;;4.78;0.35;;;;;;;7.59;49.53;100346.31;5287037;26;20037;-76
2024/04/25 07:52:52;;;;;;;6.72;0.30;;;;;;;8.84;44.67;100339.78;5291948;26;20013;-75
2024/04/25 07:55:17;;;;;;;7.53;0.32;;;;;;;10.80;43.67;100337.91;5289732;26;20006;-75
2024/04/25 07:57:43;;;;;;;3.70;0.32;;;;;;;11.58;40.08;100339.19;5284989;26;20060;-75
2024/04/25 08:00:09;;;;;;;4.95;0.40;;;;;;;12.29;38.43;100333.63;5340431;26;20005;-75
2024/04/25 08:02:38;;;;;;;4.80;0.80;;;;;;;12.80;36.88;100335.16;5302374;26;20096;-75
2024/04/25 08:05:07;;;;;;;3.28;0.40;;;;;;;12.19;36.93;100335.03;5288697;26;20014;-76
2024/04/25 08:07:35;;;;;;;2.92;0.20;;;;;;;11.74;36.40;100333.13;5289244;26;20013;-76
2024/04/25 08:10:01;;;;;;;4.53;0.38;;;;;;;10.61;37.08;100344.03;5284441;26;20006;-78
2024/04/25 08:12:27;;;;;;;3.60;0.22;;;;;;;10.56;38.00;100343.41;5287035;26;20029;-76
2024/04/25 08:14:52;;;;;;;2.95;0.20;;;;;;;10.23;36.94;100345.88;5289057;26;20005;-77
2024/04/25 08:17:18;;;;;;;2.53;0.50;;;;;;;11.32;35.71;100335.31;5283798;26;20511;-77
2024/04/25 08:19:43;;;;;;;2.25;0.20;;;;;;;12.29;33.42;100333.63;5291432;26;20050;-77
2024/04/25 08:22:09;;;;;;;8.25;0.70;;;;;;;12.41;33.73;100331.22;5255727;26;20414;-78
2024/04/25 08:24:34;;;;;;;1.52;0.20;;;;;;;12.21;34.18;100340.22;5300736;26;20012;-76
2024/04/25 08:27:00;;;;;;;1.60;0.15;;;;;;;12.39;34.72;100326.06;5341227;26;20014;-77
2024/04/25 08:29:26;;;;;;;1.00;0.10;;;;;;;12.99;33.26;100332.31;5284058;26;20670;-77
2024/04/25 08:31:52;;;;;;;3.47;0.20;;;;;;;11.97;34.28;100339.78;5294507;26;20019;-76
2024/04/25 08:34:18;;;;;;;3.83;0.90;;;;;;;11.06;33.33;100341.84;5283758;26;20009;-76
2024/04/25 08:36:43;;;;;;;1.58;0.30;;;;;;;11.21;35.50;100340.25;5281572;26;20595;-76
2024/04/25 08:39:09;;;;;;;3.78;0.35;;;;;;;12.66;33.96;100338.53;5281152;26;20024;-78
2024/04/25 08:41:35;;;;;;;3.88;0.15;;;;;;;12.13;34.58;100343.22;5277677;26;20006;-76
2024/04/25 08:44:01;;;;;;;4.82;0.47;;;;;;;10.21;34.25;100345.09;5292729;26;20017;-77
2024/04/25 08:46:27;;;;;;;4.15;0.10;;;;;;;8.56;37.69;100341.72;5315567;26;20009;-77
2024/04/25 08:48:57;;;;;;;1.60;0.10;;;;;;;7.40;39.00;100346.06;5297749;26;20061;-77
2024/04/25 08:51:25;;;;;;;7.90;0.32;;;;;;;7.47;41.15;100352.78;5341663;26;20005;-76
2024/04/25 08:53:54;;;;;;;4.05;0.57;;;;;;;7.32;40.61;100348.94;5295707;26;20550;-77
2024/04/25 08:56:22;;;;;;;5.88;0.20;;;;;;;7.50;41.44;100342.25;5278965;26;20012;-76
2024/04/25 08:58:48;;;;;;;2.42;0.30;;;;;;;7.85;41.41;100348.81;5288752;26;20848;-77
2024/04/25 09:01:15;;;;;;;1.27;0.20;;;;;;;8.14;39.10;100345.09;5287931;26;20011;-75
2024/04/25 09:03:45;;;;;;;2.55;0.20;;;;;;;8.70;38.18;100348.16;5292585;26;20583;-74
2024/04/25 09:06:11;;;;;;;4.78;0.40;;;;;;;8.69;36.99;100346.44;5293822;26;20014;-75
2024/04/25 09:08:37;;;;;;;4.05;1.00;;;;;;;8.82;36.28;100346.81;5288519;26;20013;-75
2024/04/25 09:11:02;;;;;;;2.92;0.50;;;;;;;8.32;37.17;100350.53;5283713;26;20401;-74
2024/04/25 09:13:28;;;;;;;2.15;0.30;;;;;;;7.77;37.62;100344.78;5267167;26;20458;-74
2024/04/25 09:15:59;;;;;;;1.92;0.20;;;;;;;7.78;39.30;100349.06;5276129;26;20017;-75
2024/04/25 09:18:27;;;;;;;2.53;0.20;;;;;;;7.67;38.55;100345.13;5293134;26;20029;-75
2024/04/25 09:21:00;;;;;;;3.22;0.20;;;;;;;7.60;38.87;100354.06;5336159;26;20076;-74
2024/04/25 09:23:25;;;;;;;7.38;0.30;;;;;;;7.84;37.75;100351.44;5286156;26;20907;-74
2024/04/25 09:25:51;;;;;;;4.65;0.30;;;;;;;7.62;38.01;100351.38;5289023;26;20002;-75
2024/04/25 09:28:16;;;;;;;6.00;0.28;;;;;;;7.60;37.97;100348.84;5287094;26;20099;-75
2024/04/25 09:30:42;;;;;;;3.67;0.88;;;;;;;8.09;37.37;100352.25;5314510;26;21041;-75
2024/04/25 09:33:08;;;;;;;5.70;0.93;;;;;;;8.58;38.09;100352.06;5298397;26;19996;-74
2024/04/25 09:35:40;;;;;;;3.72;0.90;;;;;;;8.67;37.90;100345.66;5328558;26;20020;-75
2024/04/25 09:38:05;;;;;;;6.25;0.40;;;;;;;8.82;36.79;100339.00;5286013;26;20013;-75
2024/04/25 09:40:31;;;;;;;2.03;0.20;;;;;;;9.73;35.46;100342.03;5286477;26;20024;-74
2024/04/25 09:42:57;;;;;;;8.35;0.20;;;;;;;9.10;35.04;100334.34;5291898;26;20036;-76
2024/04/25 09:45:27;;;;;;;2.75;0.65;;;;;;;9.33;36.71;100338.56;5290231;26;20456;-75
2024/04/25 09:47:56;;;;;;;4.47;1.15;;;;;;;8.45;37.96;100343.91;5266666;26;20032;-75
2024/04/25 09:50:25;;;;;;;2.15;0.40;;;;;;;8.34;36.68;100344.34;5302153;26;20001;-76
2024/04/25 09:53:09;;;;;;;1.45;0.20;;;;;;;8.47;37.31;100349.03;5281326;26;20789;-76
2024/04/25 09:55:39;;;;;;;0.30;0.10;;;;;;;8.80;36.38;100338.22;5273182;26;20383;-75
2024/04/25 09:58:11;;;;;;;0.40;0.10;;;;;;;8.26;36.35;100348.97;5261967;26;20009;-76
2024/04/25 10:00:38;;;;;;;1.50;0.20;;;;;;;8.21;37.10;100355.28;5283844;26;20008;-75
2024/04/25 10:03:05;;;;;;;1.67;0.10;;;;;;;8.34;37.53;100352.16;5295387;26;20001;-75
2024/04/25 10:05:31;;;;;;;4.30;0.43;;;;;;;8.53;36.86;100346.22;5292937;26;20737;-76
2024/04/25 10:07:57;;;;;;;2.42;0.20;;;;;;;8.33;37.37;100350.44;5284764;26;20589;-76
2024/04/25 10:10:25;;;;;;;3.50;0.28;;;;;;;9.37;37.68;100345.34;5295329;26;20002;-76
2024/04/25 10:12:54;;;;;;;2.78;0.40;;;;;;;9.26;35.28;100346.72;5333307;26;20002;-77
2024/04/25 10:15:30;;;;;;;2.25;0.20;;;;;;;9.14;36.38;100337.66;5292545;26;20012;-76
2024/04/25 10:17:56;;;;;;;2.25;0.30;;;;;;;8.89;36.12;100338.69;5289570;26;20037;-76
2024/04/25 10:20:22;;;;;;;1.75;0.20;;;;;;;9.07;36.58;100344.88;5322724;26;20010;-76
2024/04/25 10:22:58;;;;;;;4.38;0.32;;;;;;;8.30;38.01;100352.31;5281940;26;20001;-76
2024/04/25 10:25:24;;;;;;;0.65;0.20;;;;;;;6.59;41.89;100368.66;5340213;26;20054;-76
2024/04/25 10:28:06;;;;;;;1.75;0.20;;;;;;;6.93;42.95;100366.72;5265820;26;20801;-75
2024/04/25 10:30:32;;;;;;;3.10;0.30;;;;;;;6.67;42.93;100361.47;5271287;26;20498;-75
2024/04/25 10:33:00;;;;;;;3.25;0.20;;;;;;;6.62;42.76;100357.31;5294328;26;20027;-75
2024/04/25 10:35:26;;;;;;;4.22;0.25;;;;;;;6.64;43.14;100356.38;5289933;26;20009;-76
2024/04/25 10:37:52;;;;;;;4.10;0.20;;;;;;;6.95;43.40;100360.56;5293265;26;20021;-76
2024/04/25 10:40:19;;;;;;;3.35;0.25;;;;;;;6.95;42.19;100359.72;5296219;26;20815;-76
2024/04/25 10:42:57;;;;;;;1.40;0.30;;;;;;;6.52;41.09;100355.91;5287383;26;20265;-75
2024/04/25 10:45:25;;;;;;;2.55;0.10;;;;;;;6.90;40.57;100358.13;5285552;26;20060;-76
2024/04/25 10:47:51;;;;;;;6.72;0.65;;;;;;;6.83;41.21;100367.03;5261973;26;20487;-74
2024/04/25 10:50:17;;;;;;;4.13;0.35;;;;;;;6.91;41.17;100359.00;5323749;26;20001;-74
2024/04/25 10:52:42;;;;;;;0.68;0.20;;;;;;;7.02;42.15;100361.22;5298061;26;20450;-74
2024/04/25 10:55:08;;;;;;;2.20;0.75;;;;;;;7.02;42.18;100356.88;5296148;26;20404;-74
2024/04/25 10:57:34;;;;;;;4.90;0.45;;;;;;;7.02;42.54;100356.00;5288769;26;20009;-74
2024/04/25 11:00:00;;;;;;;4.28;0.65;;;;;;;6.94;42.22;100353.69;5289513;26;20013;-74
2024/04/25 11:02:36;;;;;;;2.00;0.45;;;;;;;6.89;42.82;100351.25;5314628;26;20018;-75
2024/04/25 11:05:02;;;;;;;1.90;0.40;;;;;;;7.24;42.11;100349.19;5285940;26;19997;-75
2024/04/25 11:07:28;;;;;;;5.40;0.40;;;;;;;6.97;42.96;100357.94;5281960;26;20020;-75
2024/04/25 11:09:55;;;;;;;12.45;1.08;;;;;;;6.94;43.03;100358.88;5298935;26;20492;-74
2024/04/25 11:12:21;;;;;;;4.35;0.30;;;;;;;7.18;42.99;100356.38;5338330;26;20415;-75
2024/04/25 11:14:47;;;;;;;2.45;0.57;;;;;;;7.12;42.48;100365.22;5266309;26;20006;-75
2024/04/25 11:17:14;;;;;;;3.97;0.20;;;;;;;7.58;41.83;100355.00;5293734;26;20001;-76
2024/04/25 11:19:40;;;;;;;3.63;0.65;;;;;;;7.37;41.93;100353.97;5287246;26;20005;-76
2024/04/25 11:22:06;;;;;;;3.30;0.32;;;;;;;7.45;42.68;100350.22;5285863;26;20610;-75
2024/04/25 11:24:32;;;;;;;2.00;0.30;;;;;;;7.73;42.37;100350.13;5260972;26;20006;-76
2024/04/25 11:27:04;;;;;;;2.53;0.30;;;;;;;8.00;41.86;100349.13;5264406;26;20881;-76
2024/04/25 11:29:30;;;;;;;;;;;;;;;8.81;41.47;100340.78;5265578;26;20017;-76
2024/04/25 11:31:56;;;;;;;3.97;0.73;;;;;;;9.60;38.21;100335.66;5284481;26;19930;-75
2024/04/25 11:34:23;;;;;;;3.55;0.30;;;;;;;10.19;37.68;100339.94;5289673;26;21396;-76